createdAt,value
2022-07-31T05:59:35.562Z,84.30
2022-07-31T06:07:02.999Z,97.60
2022-07-31T06:09:31.810Z,97.40
2022-07-31T06:12:00.245Z,97.60
2022-07-31T06:14:28.743Z,97.50
2022-07-31T06:16:57.372Z,97.50
2022-07-31T06:19:27.079Z,97.50
2022-07-31T06:21:55.584Z,97.40
2022-07-31T06:24:23.839Z,97.50
2022-07-31T06:26:53.554Z,97.40
2022-07-31T06:29:40.699Z,97.30
2022-07-31T06:32:10.585Z,97.30
2022-07-31T06:34:40.199Z,97.60
2022-07-31T06:37:08.539Z,97.10
2022-07-31T06:39:55.218Z,97.00
2022-07-31T06:42:26.045Z,96.90
2022-07-31T06:44:55.210Z,96.60
2022-07-31T06:47:25.319Z,96.60
2022-07-31T06:49:55.615Z,96.30
2022-07-31T06:52:24.046Z,96.10
2022-07-31T06:54:52.399Z,96.10
2022-07-31T06:57:20.651Z,96.00
2022-07-31T06:59:48.842Z,95.90
2022-07-31T07:02:17.047Z,95.70
2022-07-31T07:04:56.320Z,95.60
2022-07-31T07:07:36.400Z,95.50
2022-07-31T07:10:05.355Z,95.30
2022-07-31T07:12:33.582Z,95.20
2022-07-31T07:15:03.140Z,95.10
2022-07-31T07:17:31.858Z,95.00
2022-07-31T07:20:00.200Z,95.00
2022-07-31T07:22:31.403Z,95.00
2022-07-31T07:25:02.122Z,94.90
2022-07-31T07:27:31.218Z,94.80
2022-07-31T07:30:00.809Z,94.70
2022-07-31T07:32:29.063Z,94.60
2022-07-31T07:34:59.992Z,94.60
2022-07-31T07:37:29.778Z,94.60
2022-07-31T07:40:03.509Z,94.50
2022-07-31T07:42:33.986Z,94.50
2022-07-31T07:45:03.443Z,94.60
2022-07-31T07:47:53.775Z,94.50
2022-07-31T07:50:27.096Z,94.40
2022-07-31T07:52:58.009Z,94.20
2022-07-31T07:55:26.437Z,94.10
2022-07-31T07:57:56.438Z,93.70
2022-07-31T08:00:24.759Z,93.30
2022-07-31T08:03:47.020Z,92.80
2022-07-31T08:05:43.587Z,92.30
2022-07-31T08:08:12.023Z,91.90
2022-07-31T08:10:41.289Z,91.40
2022-07-31T08:13:11.075Z,91.20
2022-07-31T08:15:39.512Z,91.10
2022-07-31T08:18:08.204Z,90.90
2022-07-31T08:20:38.679Z,90.90
2022-07-31T08:23:07.295Z,90.90
2022-07-31T08:25:35.815Z,90.70
2022-07-31T08:28:05.526Z,90.70
2022-07-31T08:30:35.773Z,90.90
2022-07-31T08:33:04.192Z,91.10
2022-07-31T08:35:32.715Z,91.20
2022-07-31T08:38:03.601Z,91.20
2022-07-31T08:40:43.480Z,91.20
2022-07-31T08:44:00.411Z,91.30
2022-07-31T08:46:04.088Z,91.40
2022-07-31T08:48:34.244Z,91.30
2022-07-31T08:51:04.865Z,91.30
2022-07-31T08:53:37.595Z,91.50
2022-07-31T08:56:07.471Z,90.90
2022-07-31T08:58:39.296Z,90.50
2022-07-31T09:01:12.814Z,90.10
2022-07-31T09:03:41.595Z,89.80
2022-07-31T09:06:09.919Z,89.70
2022-07-31T09:08:39.656Z,89.60
2022-07-31T09:11:12.220Z,89.80
2022-07-31T09:13:41.238Z,90.00
2022-07-31T09:16:11.363Z,89.80
2022-07-31T09:18:39.842Z,89.50
2022-07-31T09:21:09.418Z,89.30
2022-07-31T09:23:47.478Z,89.20
2022-07-31T09:26:16.456Z,89.60
2022-07-31T09:28:46.649Z,90.00
2022-07-31T09:31:16.693Z,90.00
2022-07-31T09:33:46.436Z,90.00
2022-07-31T09:36:15.610Z,90.10
2022-07-31T09:38:45.397Z,90.10
2022-07-31T09:41:56.902Z,90.30
2022-07-31T09:44:10.200Z,90.40
2022-07-31T09:46:44.615Z,90.50
2022-07-31T09:49:13.901Z,90.50
2022-07-31T09:51:43.152Z,90.90
2022-07-31T09:54:22.348Z,91.20
2022-07-31T09:56:50.938Z,91.30
2022-07-31T09:59:19.657Z,91.40
2022-07-31T10:01:50.714Z,91.50
2022-07-31T10:04:20.256Z,91.50
2022-07-31T10:06:50.280Z,91.50
2022-07-31T10:09:20.577Z,91.40
2022-07-31T10:11:51.197Z,91.40
2022-07-31T10:14:23.751Z,91.50
2022-07-31T10:16:57.641Z,91.70
2022-07-31T10:19:28.031Z,91.50
2022-07-31T10:21:59.698Z,91.60
2022-07-31T10:24:33.503Z,91.80
2022-07-31T10:27:09.190Z,91.80
2022-07-31T10:29:39.410Z,91.90
2022-07-31T10:32:10.774Z,92.10
2022-07-31T10:34:39.861Z,92.00
2022-07-31T10:37:14.951Z,91.80
2022-07-31T10:39:49.648Z,91.80
2022-07-31T10:42:28.057Z,91.80
2022-07-31T10:45:06.607Z,91.80
2022-07-31T10:47:36.308Z,91.20
2022-07-31T10:50:05.558Z,91.70
2022-07-31T10:52:36.101Z,91.80
2022-07-31T10:55:16.285Z,91.40
2022-07-31T10:57:56.131Z,91.70
2022-07-31T11:00:30.066Z,91.80
2022-07-31T11:03:00.219Z,91.40
2022-07-31T11:05:28.823Z,91.60
2022-07-31T11:08:02.645Z,91.70
2022-07-31T11:10:31.163Z,91.60
2022-07-31T11:13:02.792Z,91.40
2022-07-31T11:15:31.204Z,91.80
2022-07-31T11:18:21.123Z,91.80
2022-07-31T11:21:13.334Z,91.80
2022-07-31T11:23:56.389Z,91.90
2022-07-31T11:26:41.244Z,91.80
2022-07-31T11:30:00.379Z,91.50
2022-07-31T11:32:13.578Z,91.50
2022-07-31T11:34:51.097Z,91.70
2022-07-31T11:37:20.640Z,91.70
2022-07-31T11:39:51.690Z,91.50
2022-07-31T11:42:26.517Z,91.10
2022-07-31T11:45:08.452Z,91.30
2022-07-31T11:48:12.521Z,91.50
2022-07-31T11:50:32.409Z,91.10
2022-07-31T11:53:06.996Z,91.40
2022-07-31T11:55:45.873Z,91.30
2022-07-31T11:58:15.255Z,91.30
2022-07-31T12:00:48.894Z,91.10
2022-07-31T12:03:18.835Z,91.00
2022-07-31T12:05:50.051Z,91.10
2022-07-31T12:08:18.730Z,91.00
2022-07-31T12:10:48.057Z,91.20
2022-07-31T12:13:19.046Z,91.30
2022-07-31T12:16:02.673Z,91.20
2022-07-31T12:18:32.291Z,91.30
2022-07-31T12:21:03.696Z,91.20
2022-07-31T12:23:41.930Z,91.50
2022-07-31T12:26:14.169Z,91.50
2022-07-31T12:28:43.732Z,91.70
2022-07-31T12:31:12.027Z,91.60
2022-07-31T12:33:45.701Z,91.80
2022-07-31T12:36:17.116Z,91.70
2022-07-31T12:38:48.300Z,91.20
2022-07-31T12:41:19.763Z,91.60
2022-07-31T12:43:52.056Z,91.50
2022-07-31T12:46:23.090Z,91.10
2022-07-31T12:48:52.067Z,91.20
2022-07-31T12:51:45.578Z,91.40
2022-07-31T12:54:11.136Z,91.30
2022-07-31T12:56:40.643Z,91.10
2022-07-31T12:59:09.555Z,90.90
2022-07-31T13:01:38.715Z,90.60
2022-07-31T13:04:18.651Z,90.50
2022-07-31T13:06:51.531Z,90.60
2022-07-31T13:09:21.310Z,90.50
2022-07-31T13:11:53.237Z,90.60
2022-07-31T13:14:25.410Z,90.70
2022-07-31T13:16:55.397Z,90.70
2022-07-31T13:19:23.846Z,90.70
2022-07-31T13:21:56.875Z,90.70
2022-07-31T13:24:25.531Z,90.50
2022-07-31T13:26:55.471Z,90.60
2022-07-31T13:29:23.829Z,90.30
2022-07-31T13:31:52.466Z,90.20
2022-07-31T13:34:20.887Z,90.30
2022-07-31T13:36:49.160Z,90.30
2022-07-31T13:39:21.158Z,90.40
2022-07-31T13:41:49.554Z,90.30
2022-07-31T13:44:17.864Z,90.40
2022-07-31T13:46:46.678Z,90.40
2022-07-31T13:49:15.773Z,90.70
2022-07-31T13:51:44.279Z,90.60
2022-07-31T13:54:12.846Z,90.60
2022-07-31T13:56:43.688Z,90.50
2022-07-31T13:59:15.115Z,90.60
2022-07-31T14:02:03.122Z,90.70
2022-07-31T14:04:38.119Z,90.70
2022-07-31T14:07:08.361Z,90.20
2022-07-31T14:09:37.736Z,90.10
2022-07-31T14:12:08.431Z,90.30
2022-07-31T14:14:37.884Z,90.10
2022-07-31T14:17:06.463Z,90.00
2022-07-31T14:19:42.002Z,89.70
2022-07-31T14:22:14.539Z,90.00
2022-07-31T14:24:50.056Z,90.40
2022-07-31T14:27:22.076Z,90.60
2022-07-31T14:29:50.722Z,90.60
2022-07-31T14:32:21.829Z,90.60
2022-07-31T14:34:50.722Z,90.70
2022-07-31T14:37:20.177Z,90.80
2022-07-31T14:39:48.732Z,90.90
2022-07-31T14:42:22.252Z,91.10
2022-07-31T14:44:55.330Z,91.10
2022-07-31T14:47:23.771Z,91.10
2022-07-31T14:50:06.653Z,91.50
2022-07-31T14:52:39.603Z,91.50
2022-07-31T14:55:09.063Z,91.40
2022-07-31T14:57:37.605Z,91.10
2022-07-31T15:00:13.018Z,91.10
2022-07-31T15:02:42.103Z,91.30
2022-07-31T15:06:50.913Z,91.70
2022-07-31T15:08:00.075Z,91.40
2022-07-31T15:10:31.060Z,91.50
2022-07-31T15:12:59.295Z,91.70
2022-07-31T15:15:29.191Z,91.60
2022-07-31T15:18:00.737Z,91.50
2022-07-31T15:20:33.144Z,91.10
2022-07-31T15:23:01.989Z,90.90
2022-07-31T15:25:30.189Z,90.80
2022-07-31T15:27:58.492Z,91.10
2022-07-31T15:30:28.535Z,91.00
2022-07-31T15:32:56.756Z,90.90
2022-07-31T15:35:25.089Z,90.60
2022-07-31T15:37:53.405Z,90.50
2022-07-31T15:40:21.586Z,90.60
2022-07-31T15:42:50.044Z,90.90
2022-07-31T15:45:22.010Z,91.10
2022-07-31T15:47:51.609Z,91.20
2022-07-31T15:50:20.876Z,91.40
2022-07-31T15:52:49.458Z,90.60
2022-07-31T15:55:18.751Z,91.00
2022-07-31T15:57:47.085Z,91.20
2022-07-31T16:00:16.215Z,91.00
2022-07-31T16:02:45.476Z,90.90
2022-07-31T16:05:22.085Z,91.00
2022-07-31T16:08:28.943Z,91.40
2022-07-31T16:10:54.917Z,91.40
2022-07-31T16:13:23.782Z,91.60
2022-07-31T16:15:54.319Z,91.30
2022-07-31T16:18:22.606Z,91.70
2022-07-31T16:20:53.056Z,91.70
2022-07-31T16:23:21.354Z,91.50
2022-07-31T16:25:49.891Z,91.40
2022-07-31T16:28:18.291Z,91.40
2022-07-31T16:30:46.823Z,91.10
2022-07-31T16:33:15.509Z,91.50
2022-07-31T16:35:43.940Z,91.50
2022-07-31T16:38:13.524Z,91.80
2022-07-31T16:40:41.830Z,92.50
2022-07-31T16:43:50.706Z,92.10
2022-07-31T16:45:58.721Z,92.00
2022-07-31T16:48:27.025Z,92.30
2022-07-31T16:50:55.410Z,92.80
2022-07-31T16:54:11.250Z,92.20
2022-07-31T16:56:14.409Z,92.40
2022-07-31T16:58:43.823Z,92.60
2022-07-31T17:01:57.305Z,92.30
2022-07-31T17:04:03.969Z,92.10
2022-07-31T17:06:36.978Z,91.60
2022-07-31T17:09:16.265Z,91.20
2022-07-31T17:11:48.406Z,91.30
2022-07-31T17:14:17.766Z,91.10
2022-07-31T17:16:48.426Z,91.00
2022-07-31T17:19:41.085Z,90.60
2022-07-31T17:22:07.391Z,90.50
2022-07-31T17:24:38.121Z,90.50
2022-07-31T17:27:08.560Z,90.50
2022-07-31T17:29:37.703Z,90.30
2022-07-31T17:32:06.525Z,90.40
2022-07-31T17:34:35.575Z,90.80
2022-07-31T17:37:04.269Z,90.20
2022-07-31T17:39:32.821Z,90.10
2022-07-31T17:42:02.780Z,90.10
2022-07-31T17:44:31.144Z,90.50
2022-07-31T17:47:00.529Z,90.40
2022-07-31T17:49:32.745Z,90.50
2022-07-31T17:52:01.025Z,90.50
2022-07-31T17:54:30.987Z,90.60
2022-07-31T17:56:59.469Z,91.30
2022-07-31T17:59:29.825Z,91.70
2022-07-31T18:02:01.059Z,91.30
2022-07-31T18:04:30.516Z,91.20
2022-07-31T18:06:59.252Z,91.30
2022-07-31T18:09:28.608Z,91.30
2022-07-31T18:11:57.490Z,91.80
2022-07-31T18:14:26.095Z,91.60
2022-07-31T18:16:56.077Z,91.30
2022-07-31T18:19:24.701Z,91.20
2022-07-31T18:21:53.656Z,91.40
2022-07-31T18:24:22.730Z,92.50
2022-07-31T18:26:51.080Z,93.10
2022-07-31T18:29:19.696Z,93.60
2022-07-31T18:31:48.938Z,93.60
2022-07-31T18:34:18.557Z,93.60
2022-07-31T18:36:54.264Z,93.90
2022-07-31T18:39:23.644Z,93.80
2022-07-31T18:41:52.077Z,93.90
2022-07-31T18:44:21.947Z,94.20
2022-07-31T18:46:50.783Z,94.30
2022-07-31T18:50:59.943Z,94.40
2022-07-31T18:52:10.605Z,94.40
2022-07-31T18:54:39.298Z,94.50
2022-07-31T18:57:07.865Z,94.40
2022-07-31T18:59:36.499Z,94.60
2022-07-31T19:02:05.348Z,94.60
2022-07-31T19:04:35.588Z,94.70
2022-07-31T19:07:03.932Z,94.70
2022-07-31T19:09:32.257Z,94.90
2022-07-31T19:12:06.163Z,94.90
2022-07-31T19:14:36.392Z,94.90
2022-07-31T19:17:04.801Z,94.80
2022-07-31T19:19:54.848Z,94.60
2022-07-31T19:22:25.222Z,94.60
2022-07-31T19:24:53.739Z,94.50
2022-07-31T19:27:21.990Z,94.70
2022-07-31T19:30:12.033Z,94.70
2022-07-31T19:32:40.824Z,94.90
2022-07-31T19:35:11.397Z,95.00
2022-07-31T19:37:39.707Z,95.10
2022-07-31T19:40:09.078Z,95.20
2022-07-31T19:42:37.406Z,95.30
2022-07-31T19:45:06.375Z,95.50
2022-07-31T19:47:36.470Z,95.60
2022-07-31T19:50:05.457Z,95.50
2022-07-31T19:52:35.253Z,95.60
2022-07-31T19:55:03.503Z,95.70
2022-07-31T19:57:31.795Z,95.70
2022-07-31T20:00:00.443Z,95.60
2022-07-31T20:02:29.066Z,95.70
2022-07-31T20:04:57.333Z,95.80
2022-07-31T20:07:32.542Z,95.90
2022-07-31T20:10:02.941Z,95.80
2022-07-31T20:12:31.308Z,95.70
2022-07-31T20:14:59.821Z,95.70
2022-07-31T20:17:28.289Z,95.70
2022-07-31T20:20:12.590Z,95.70
2022-07-31T20:22:44.189Z,95.70
2022-07-31T20:25:20.404Z,95.60
2022-07-31T20:27:49.756Z,95.50
2022-07-31T20:30:22.042Z,95.50
2022-07-31T20:32:50.729Z,95.60
2022-07-31T20:35:29.301Z,95.60
2022-07-31T20:38:15.584Z,95.60
2022-07-31T20:40:52.750Z,95.50
2022-07-31T20:43:22.350Z,95.70
2022-07-31T20:45:50.610Z,95.80
2022-07-31T20:48:18.962Z,95.90
2022-07-31T20:50:48.297Z,95.90
2022-07-31T20:53:17.111Z,95.90
2022-07-31T20:55:48.196Z,96.00
2022-07-31T20:58:16.436Z,96.10
2022-07-31T21:00:47.443Z,96.20
2022-07-31T21:03:16.169Z,96.20
2022-07-31T21:05:45.114Z,96.20
2022-07-31T21:08:13.974Z,96.40
2022-07-31T21:10:42.327Z,96.40
2022-07-31T21:13:12.003Z,96.40
2022-07-31T21:15:44.603Z,96.50
2022-07-31T21:18:15.026Z,96.40
2022-07-31T21:20:51.678Z,96.40
2022-07-31T21:23:23.229Z,96.40
2022-07-31T21:25:52.339Z,96.40
2022-07-31T21:28:22.803Z,96.40
2022-07-31T21:30:53.653Z,96.40
2022-07-31T21:33:22.742Z,96.30
2022-07-31T21:35:51.278Z,96.30
2022-07-31T21:38:20.577Z,96.30
2022-07-31T21:40:49.614Z,96.30
2022-07-31T21:43:22.585Z,96.30
2022-07-31T21:45:57.618Z,96.30
2022-07-31T21:48:30.834Z,96.30
2022-07-31T21:51:00.544Z,96.30
2022-07-31T21:53:29.915Z,96.30
2022-07-31T21:56:02.000Z,96.30
2022-07-31T22:03:28.908Z,96.30
2022-07-31T22:06:14.375Z,96.60
2022-07-31T22:08:42.661Z,97.00
2022-07-31T22:11:11.621Z,97.00
2022-07-31T22:13:39.808Z,97.00
2022-07-31T22:16:10.379Z,97.20
2022-07-31T22:18:39.350Z,97.20
2022-07-31T22:21:09.566Z,97.50
2022-07-31T22:23:38.600Z,97.50
2022-07-31T22:26:07.463Z,97.50
2022-07-31T22:28:36.573Z,97.70
2022-07-31T22:31:05.606Z,97.70
2022-07-31T22:33:35.445Z,97.60
2022-07-31T22:36:07.169Z,97.60
2022-07-31T22:38:37.937Z,97.80
2022-07-31T22:41:06.311Z,97.80
2022-07-31T22:44:12.481Z,97.80
2022-07-31T22:46:23.099Z,97.90
2022-07-31T22:48:54.289Z,98.10
2022-07-31T22:51:22.997Z,97.90
2022-07-31T22:53:51.319Z,98.10
2022-07-31T22:56:20.018Z,98.00
2022-07-31T22:58:48.522Z,98.10
2022-07-31T23:01:17.028Z,98.30
2022-07-31T23:03:45.332Z,98.20
2022-07-31T23:06:31.498Z,98.30
2022-07-31T23:09:01.521Z,98.30
2022-07-31T23:11:30.079Z,98.20
2022-07-31T23:13:58.360Z,98.20
2022-07-31T23:16:27.319Z,98.40
2022-07-31T23:18:55.662Z,98.40
2022-07-31T23:21:25.883Z,98.30
2022-07-31T23:23:54.631Z,98.20
2022-07-31T23:26:24.901Z,98.20
2022-07-31T23:28:54.370Z,98.20
2022-07-31T23:31:23.674Z,98.20
2022-07-31T23:33:52.926Z,98.30
2022-07-31T23:36:21.546Z,98.30
2022-07-31T23:38:51.498Z,98.30
2022-07-31T23:41:40.955Z,98.20
2022-07-31T23:44:10.595Z,98.20
2022-07-31T23:46:40.200Z,98.40
2022-07-31T23:49:09.410Z,98.40
2022-07-31T23:51:37.778Z,98.40
2022-07-31T23:54:07.995Z,98.30
2022-07-31T23:56:36.326Z,98.40
2022-07-31T23:59:04.869Z,98.40
